UYF weather

Madison County Airport
London, Ohio, United States

Public forecast

Using degrees Fahrenheit for public forecast. Weather courtesy of forecast.io.

METAR (pilot weather report)

Retrieved 2019/05/25 22:35 UTC (18 minutes ago):

KUYF 252235Z AUTO 28009G16KT 10SM -DZ SCT065 BKN090 OVC110 21/20 A3006 RMK AO2

TAF (pilot weather forecast)

Closest forecast is Rickenbacker International Airport, 25.6 nm (47.5 km) ESE. Retrieved 2019/05/25 22:57 UTC (0 seconds ago):

TAF KLCK 252143Z 2522/2618 31015G25KT 6SM -SHRA OVC040 FM252300 24010KT P6SM VCSH SCT040 BKN100 FM260100 23006KT P6SM BKN120 FM260900 23006KT P6SM BKN060 FM261100 23007KT P6SM VCSH BKN050 FM261500 25009KT P6SM -SHRA VCTS BKN050CB